CheckWX is a tool to help pilots better visualize weather data.  It is not intended as a substitute for an official pre-flight weather briefing.

06:00:55 UTC

KBGR METAR
Bangor International Airport
Bangor, Maine, USA
Current

8 mins ago

KBGR 280553Z 28007KT 10SM SCT100 M01/M08 A2944 RMK AO2 SLP972 4/001 60000 T10111078 10022 21011 53026 $
Observed
Feb-28 @ 05:53 UTC
Wind
  • 280° at 7 KTS
Visibility
10 SM
Flight Rules
VFR
Cloud Levels
  • Scattered at 10,000' AGL
Temperature
-1°C / 30°F
Dewpoint
-8°C / 18°F
Humidity
59%
Altimeter
29.44" Hg
Pressure
996.92 hPa
Snow Depth
1"
Previous

1 hour ago

KBGR 280453Z 27011G17KT 10SM BKN100 M01/M07 A2942 RMK AO2 SLP963 T10061072 400441006 $
Observed
Feb-28 @ 04:53 UTC
Wind
  • 270° at 11 KTS
  • Gusting to 17 KTS
Visibility
10 SM
Flight Rules
VFR
Cloud Levels
  • Broken at 10,000' AGL
Temperature
-1°C / 30°F
Dewpoint
-7°C / 19°F
Humidity
64%
Altimeter
29.42" Hg
Pressure
996.32 hPa
Previous

2 hours ago

KBGR 280353Z 25007KT 230V290 10SM FEW036 OVC090 00/M07 A2939 RMK AO2 SLP954 T00001072 $
Observed
Feb-28 @ 03:53 UTC
Wind
  • 250° at 7 KTS
Visibility
10 SM
Flight Rules
VFR
Cloud Levels
  • Few at 3,600' AGL
  • Overcast at 9,000' AGL
Temperature
C / 32°F
Dewpoint
-7°C / 19°F
Humidity
60%
Altimeter
29.39" Hg
Pressure
995.22 hPa